Time;durP1;ratioP1;P1;durP2;ratioP2;P2;SDS_P1;SDS_P2;PMS_P1;PMS_P2;Temp;Humidity;BMP_temperature;BMP_pressure;BME280_temperature;BME280_humidity;BME280_pressure;Samples;Min_cycle;Max_cycle;Signal;HPM_P1;HPM_P2
2023/03/29 01:56:24;;;;;;;5.40;5.00;;;;;;;0.86;100.00;98394.95;1743585;80;21459;-72
2023/03/29 02:19:24;;;;;;;11.43;10.30;;;;;;;0.70;100.00;98447.01;1665244;82;20909;-71
2023/03/29 02:22:07;;;;;;;11.63;10.38;;;;;;;0.61;100.00;98442.01;1652291;84;21131;-72
2023/03/29 02:24:36;;;;;;;6.60;6.10;;;;;;;0.91;100.00;98440.50;1661815;85;21434;-72
2023/03/29 02:27:12;;;;;;;5.35;4.83;;;;;;;1.06;100.00;98451.03;1660432;84;20955;-72
2023/03/29 02:29:39;;;;;;;11.93;11.00;;;;;;;1.08;100.00;98457.42;1637566;84;21496;-72
2023/03/29 02:32:16;;;;;;;52.75;47.38;;;;;;;1.06;100.00;98459.47;1652917;84;20905;-72
2023/03/29 02:35:00;;;;;;;36.08;23.67;;;;;;;1.35;100.00;98440.77;1645383;85;21618;-72
2023/03/29 02:37:29;;;;;;;7.83;7.12;;;;;;;1.00;100.00;98451.08;1658029;83;20874;-72
2023/03/29 02:39:56;;;;;;;4.70;4.30;;;;;;;0.85;100.00;98460.16;1632499;85;27146;-71
2023/03/29 02:42:31;;;;;;;5.03;4.72;;;;;;;0.92;100.00;98464.59;1610333;86;21876;-72
2023/03/29 02:44:56;;;;;;;5.25;4.50;;;;;;;0.79;100.00;98458.41;1613046;86;20909;-72
2023/03/29 02:47:30;;;;;;;5.12;4.72;;;;;;;0.98;100.00;98467.66;1630163;85;21522;-72
2023/03/29 02:49:59;;;;;;;17.02;15.45;;;;;;;0.59;100.00;98479.70;1625953;84;20896;-72
2023/03/29 02:52:42;;;;;;;14.40;13.20;;;;;;;0.60;100.00;98464.14;1628358;84;21014;-74
2023/03/29 02:55:20;;;;;;;10.55;9.63;;;;;;;0.88;100.00;98453.63;1635185;85;20996;-72
2023/03/29 02:57:51;;;;;;;11.03;9.98;;;;;;;1.18;100.00;98476.75;1621448;85;21427;-72
2023/03/29 03:00:27;;;;;;;7.60;6.90;;;;;;;0.70;100.00;98483.98;1643983;84;21530;-72
2023/03/29 03:03:01;;;;;;;5.30;4.75;;;;;;;0.63;100.00;98470.82;1674063;82;20910;-72
2023/03/29 03:05:37;;;;;;;5.85;5.25;;;;;;;0.44;100.00;98469.95;1682230;81;21507;-72
2023/03/29 03:08:07;;;;;;;10.32;7.55;;;;;;;0.10;100.00;98494.45;1636786;83;20977;-72
2023/03/29 03:10:39;;;;;;;20.25;18.45;;;;;;;0.34;100.00;98498.17;1676423;83;21405;-72
2023/03/29 03:13:11;;;;;;;10.45;9.58;;;;;;;0.25;100.00;98491.52;1678094;83;21475;-72
2023/03/29 03:15:41;;;;;;;8.43;7.62;;;;;;;0.47;100.00;98502.55;1658539;83;20894;-72
2023/03/29 03:18:08;;;;;;;7.80;6.90;;;;;;;0.69;100.00;98516.20;1683582;83;20972;-72
2023/03/29 03:20:38;;;;;;;8.55;6.80;;;;;;;0.48;100.00;98509.43;1680180;82;20901;-72
2023/03/29 03:23:07;;;;;;;15.90;14.53;;;;;;;0.53;100.00;98519.35;1684604;83;20905;-72
2023/03/29 03:25:35;;;;;;;26.05;18.25;;;;;;;0.50;100.00;98519.79;1678952;83;21168;-72
2023/03/29 03:28:05;;;;;;;18.35;14.40;;;;;;;0.47;100.00;98523.66;1661430;83;21514;-73
2023/03/29 03:30:44;;;;;;;7.87;7.10;;;;;;;0.67;100.00;98530.13;1711085;80;20842;-72
2023/03/29 03:33:31;;;;;;;7.60;6.90;;;;;;;0.85;100.00;98543.38;1720599;81;20956;-72
2023/03/29 03:39:09;;;;;;;36.23;33.15;;;;;;;0.65;100.00;98538.77;1609650;86;21416;-72
2023/03/29 03:41:48;;;;;;;34.80;20.62;;;;;;;0.51;100.00;98538.55;1569044;88;20888;-72
2023/03/29 03:44:20;;;;;;;7.12;6.53;;;;;;;0.70;100.00;98532.84;1627427;86;20987;-73
2023/03/29 03:46:57;;;;;;;6.42;5.92;;;;;;;0.63;100.00;98548.21;1570039;87;21014;-72
2023/03/29 03:49:26;;;;;;;7.03;6.33;;;;;;;0.78;100.00;98547.91;1594901;87;21559;-72
2023/03/29 03:52:03;;;;;;;9.18;8.48;;;;;;;0.93;100.00;98552.90;1589732;88;21114;-72
2023/03/29 03:54:35;;;;;;;6.05;5.50;;;;;;;0.44;100.00;98554.43;1591360;88;21419;-72
2023/03/29 03:57:27;;;;;;;11.05;9.95;;;;;;;0.60;100.00;98553.93;1577271;89;21202;-72
2023/03/29 04:00:00;;;;;;;25.88;23.77;;;;;;;0.66;100.00;98551.45;1600301;87;20924;-72
2023/03/29 04:02:31;;;;;;;10.05;9.10;;;;;;;0.33;100.00;98562.52;1589179;87;21072;-72
2023/03/29 04:05:07;;;;;;;9.90;8.93;;;;;;;0.67;100.00;98575.54;1601315;87;21793;-72
2023/03/29 04:08:14;;;;;;;7.40;6.70;;;;;;;0.67;100.00;98553.89;1568512;89;21152;-72
2023/03/29 04:10:37;;;;;;;13.85;12.55;;;;;;;0.51;100.00;98556.52;1606317;86;20956;-73
2023/03/29 04:13:16;;;;;;;12.33;11.12;;;;;;;0.53;100.00;98580.89;1616170;87;21419;-72
2023/03/29 04:16:05;;;;;;;13.68;10.32;;;;;;;0.85;100.00;98584.33;1581139;87;21123;-72
2023/03/29 04:18:38;;;;;;;8.90;7.50;;;;;;;0.82;100.00;98582.64;1591013;87;20964;-74
2023/03/29 04:21:15;;;;;;;19.20;17.50;;;;;;;0.60;100.00;98598.83;1591941;87;20940;-74
2023/03/29 04:23:53;;;;;;;20.95;18.80;;;;;;;0.29;100.00;98582.95;1590624;89;21453;-73
2023/03/29 04:26:21;;;;;;;12.07;10.93;;;;;;;0.45;100.00;98594.35;1598158;88;21407;-73
2023/03/29 04:28:53;;;;;;;7.75;7.00;;;;;;;0.78;100.00;98603.38;1592565;89;20996;-73
2023/03/29 04:31:33;;;;;;;6.72;5.28;;;;;;;0.43;100.00;98594.55;1599218;88;21125;-72
2023/03/29 04:34:29;;;;;;;;;;;;;;;;;;;;;
2023/03/29 04:37:20;;;;;;;;;;;;;;;;;;;;;
2023/03/29 04:39:48;;;;;;;50.17;36.77;;;;;;;-0.15;100.00;98600.38;1559119;89;20900;-72
2023/03/29 04:42:56;;;;;;;17.75;14.05;;;;;;;0.21;100.00;98600.65;1561707;90;21048;-72
2023/03/29 04:45:16;;;;;;;6.37;5.78;;;;;;;0.19;100.00;98600.05;1531234;89;20972;-74
2023/03/29 04:47:48;;;;;;;4.67;4.37;;;;;;;0.12;100.00;98588.73;1596774;86;20932;-72
2023/03/29 04:50:20;;;;;;;5.05;4.75;;;;;;;0.07;100.00;98601.72;1545968;89;20961;-73
2023/03/29 04:52:49;;;;;;;11.35;7.03;;;;;;;0.08;100.00;98603.87;1535808;90;21026;-73
2023/03/29 04:55:23;;;;;;;35.88;32.38;;;;;;;0.11;100.00;98599.48;1528052;91;21001;-74
2023/03/29 04:57:52;;;;;;;54.38;50.00;;;;;;;0.16;100.00;98594.39;1553294;90;21635;-73
2023/03/29 05:00:26;;;;;;;10.53;9.58;;;;;;;0.19;100.00;98603.20;1560362;91;21009;-73
2023/03/29 05:03:23;;;;;;;;;;;;;;;;;;;;;
2023/03/29 05:05:48;;;;;;;8.80;6.05;;;;;;;0.26;100.00;98604.50;1527443;92;21099;-74
2023/03/29 05:08:19;;;;;;;5.92;5.08;;;;;;;0.38;100.00;98593.57;1518010;92;21038;-73
2023/03/29 05:10:49;;;;;;;47.35;42.40;;;;;;;0.12;100.00;98611.16;1510418;92;21183;-73
2023/03/29 05:13:17;;;;;;;58.13;52.90;;;;;;;0.24;100.00;98609.17;1492703;94;21296;-73
2023/03/29 05:15:44;;;;;;;42.83;26.25;;;;;;;0.28;100.00;98584.78;1517175;92;21096;-73
2023/03/29 05:18:18;;;;;;;21.55;14.73;;;;;;;0.40;100.00;98614.78;1517727;92;20974;-72
2023/03/29 05:20:51;;;;;;;13.83;12.37;;;;;;;0.41;100.00;98607.66;1438526;96;21026;-72
2023/03/29 05:23:22;;;;;;;6.85;6.15;;;;;;;0.56;100.00;98606.06;1422821;97;21821;-72
2023/03/29 05:25:52;;;;;;;6.62;6.03;;;;;;;0.47;100.00;98616.59;1477766;93;21149;-73
2023/03/29 05:28:21;;;;;;;93.50;83.65;;;;;;;0.42;100.00;98617.22;1495274;93;21047;-72
2023/03/29 05:31:05;;;;;;;46.13;41.75;;;;;;;0.61;100.00;98617.62;1492219;93;21532;-72
2023/03/29 05:33:36;;;;;;;47.67;31.50;;;;;;;0.58;100.00;98620.67;1518015;92;21082;-72
2023/03/29 05:36:08;;;;;;;31.20;25.30;;;;;;;0.93;100.00;98630.01;1528479;90;21882;-73
2023/03/29 05:38:37;;;;;;;14.30;12.73;;;;;;;0.85;100.00;98634.52;1496938;93;21080;-72
2023/03/29 05:41:05;;;;;;;10.58;9.58;;;;;;;0.77;100.00;98626.86;1491749;94;21871;-72
2023/03/29 05:43:34;;;;;;;10.15;9.35;;;;;;;1.32;100.00;98642.64;1494545;93;21113;-72
2023/03/29 05:46:06;;;;;;;18.37;9.70;;;;;;;1.39;100.00;98637.59;1481201;94;21097;-72
2023/03/29 05:48:33;;;;;;;104.40;94.22;;;;;;;0.99;100.00;98623.88;1492635;93;21157;-73
2023/03/29 05:51:02;;;;;;;84.90;76.20;;;;;;;0.86;100.00;98641.97;1499397;92;21156;-72
2023/03/29 05:53:31;;;;;;;21.95;17.15;;;;;;;1.11;100.00;98640.67;1503984;90;21055;-72
2023/03/29 05:55:59;;;;;;;12.45;10.40;;;;;;;0.92;100.00;98634.48;1511612;91;21069;-72
2023/03/29 05:58:28;;;;;;;7.22;6.58;;;;;;;1.20;100.00;98630.13;1587606;85;21026;-72
2023/03/29 06:01:04;;;;;;;6.75;6.03;;;;;;;1.71;100.00;98626.43;1647274;83;21312;-73
2023/03/29 06:03:46;;;;;;;62.93;55.38;;;;;;;1.83;100.00;98638.40;1691547;81;20923;-73
2023/03/29 06:06:14;;;;;;;62.35;56.45;;;;;;;1.39;100.00;98637.59;1718254;81;20875;-73
2023/03/29 06:08:41;;;;;;;42.35;24.20;;;;;;;1.65;100.00;98640.52;1683871;81;20981;-73
2023/03/29 06:11:12;;;;;;;147.80;63.78;;;;;;;1.64;100.00;98646.84;1602075;86;20889;-73
2023/03/29 06:13:58;;;;;;;36.40;31.60;;;;;;;1.15;100.00;98633.11;1594027;88;21006;-73
2023/03/29 06:16:26;;;;;;;7.40;6.70;;;;;;;1.22;100.00;98652.37;1580228;88;20892;-74
2023/03/29 06:18:53;;;;;;;10.50;9.55;;;;;;;1.40;100.00;98655.61;1580828;88;21131;-71
2023/03/29 06:21:27;;;;;;;8.13;7.33;;;;;;;1.46;100.00;98653.41;1601673;88;28045;-71
2023/03/29 06:23:56;;;;;;;137.20;104.78;;;;;;;1.42;100.00;98660.14;1598223;88;21022;-73
2023/03/29 06:26:23;;;;;;;136.97;124.47;;;;;;;1.60;100.00;98668.14;1603119;87;21250;-73
2023/03/29 06:28:54;;;;;;;125.53;60.75;;;;;;;1.49;100.00;98663.54;1578051;88;20966;-73
2023/03/29 06:31:19;;;;;;;94.90;49.55;;;;;;;1.69;100.00;98668.66;1605051;87;21006;-73
2023/03/29 06:34:03;;;;;;;;;;;;;;;;;;;;;
2023/03/29 06:36:34;;;;;;;29.35;21.20;;;;;;;2.11;100.00;98674.97;1594467;88;21023;-73
2023/03/29 06:39:02;;;;;;;10.85;8.75;;;;;;;1.96;100.00;98684.28;1608779;87;21799;-71
2023/03/29 06:45:03;;;;;;;12.37;7.62;;;;;;;1.85;100.00;98680.53;1615256;86;21059;-72
2023/03/29 06:47:47;;;;;;;100.40;87.95;;;;;;;1.79;100.00;98688.00;1581872;85;21014;-72
2023/03/29 06:53:25;;;;;;;75.10;36.73;;;;;;;2.04;100.00;98627.91;1544603;89;20949;-72
2023/03/29 06:56:07;;;;;;;59.35;30.75;;;;;;;2.18;100.00;98713.78;1562479;89;20980;-72
2023/03/29 06:58:54;;;;;;;28.87;22.98;;;;;;;2.18;100.00;98710.65;1515927;90;21032;-72
2023/03/29 07:01:23;;;;;;;10.75;9.43;;;;;;;2.19;100.00;98701.66;1536058;90;21432;-73
2023/03/29 07:04:06;;;;;;;7.40;6.70;;;;;;;1.74;100.00;98705.87;1535069;90;21071;-72
2023/03/29 07:06:37;;;;;;;13.03;7.80;;;;;;;1.59;100.00;98715.95;1535420;90;21091;-72
2023/03/29 07:09:11;;;;;;;124.55;110.40;;;;;;;1.64;100.00;98717.44;1537102;90;20992;-73
2023/03/29 07:12:08;;;;;;;130.30;73.28;;;;;;;1.78;100.00;98720.27;1469976;93;21074;-72
2023/03/29 07:15:06;;;;;;;85.80;42.95;;;;;;;1.58;100.00;98717.80;1484415;95;21130;-73
2023/03/29 07:20:47;;;;;;;28.87;20.35;;;;;;;1.93;100.00;98721.26;1428609;98;21119;-73
2023/03/29 07:23:31;;;;;;;11.70;7.60;;;;;;;2.13;100.00;98726.36;1423632;97;21174;-72
2023/03/29 07:26:10;;;;;;;;;;;;;;;;;;;;;
2023/03/29 07:28:42;;;;;;;9.33;7.45;;;;;;;1.70;100.00;98727.17;1375848;102;21482;-74
2023/03/29 07:31:40;;;;;;;6.10;5.65;;;;;;;1.54;100.00;98736.95;1332057;104;21079;-74
2023/03/29 07:53:29;;;;;;;5.60;5.12;;;;;;;2.21;100.00;98758.38;1406862;97;21741;-74
